aviador You're here:

KANK Decoded Metar

in
Report Time2018-02-22 14:55:00
UTC Time2018-02-22 14:54:49
Flight Rules ifr IFR
WindCalm
Visibility2012 m
Phenomena:N/A
Clouds:Broken 012 Hf
Overcast 022 Hf
Expected CloudBase > 800 ft AGL from Temp-Dew spread
Ceiling1,200 ft
Temp-7°C
Dew Point-9°C (86% RH)
AAT-10.0°C
QNH1015 hPa
Raw Report
KANK 221455Z AUTO 00000KT 1 1/4SM BKN012 OVC022 M07/M09 A2998 RMK
AO1 T10731087=

Extra information for KANK:More info

Social comments